Hartland, Michigan
Current Conditions -  °F | °C
As of 12:34 AM on Sunday 26 Oct 2014 (Local Time) from KOZW Reporting Station
Clear Clear  
Wind Chill: 46°   Ceiling: Unl
Heat Index: 49°   Visibility: 10mi
Dew Point: 31°   Wind: 8mph
Humidity: 49%   Direction: 280°W
Pressure: 29.84"   Gusts: NA
Location:  42.66°N, 83.75°W
Report Text: KOZW 260434Z AUTO 28007KT 10SM CLR 10/M01 A2984 RMK AO2 T00951007
Loading
Personal Weather Stations






























Interactive Weather Map New forecast layout! Learn more

10-Day Weather Forecast

Advertisements
Track Severe Weather on mobile